Time;durP1;ratioP1;P1;durP2;ratioP2;P2;SDS_P1;SDS_P2;PMS_P1;PMS_P2;Temp;Humidity;BMP_temperature;BMP_pressure;BME280_temperature;BME280_humidity;BME280_pressure;Samples;Min_cycle;Max_cycle;Signal;HPM_P1;HPM_P2
2021/03/14 00:01:16;;;;;;;5.80;2.42;;;;;;;15.15;43.05;100633.69;5072509;28;20048;-79
2021/03/14 00:03:41;;;;;;;12.38;3.08;;;;;;;15.19;43.16;100642.88;5072597;28;20111;-82
2021/03/14 00:06:07;;;;;;;11.75;2.45;;;;;;;15.03;43.25;100639.19;5072506;28;20071;-79
2021/03/14 00:08:33;;;;;;;8.25;2.63;;;;;;;15.47;42.05;100651.19;5072612;28;20395;-79
2021/03/14 00:11:03;;;;;;;8.32;2.53;;;;;;;15.53;41.86;100647.03;5071427;28;20060;-82
2021/03/14 00:13:34;;;;;;;7.82;2.03;;;;;;;15.34;42.31;100655.09;5072484;28;20035;-80
2021/03/14 00:16:02;;;;;;;7.28;2.17;;;;;;;15.39;42.04;100665.88;5072238;28;20081;-79
2021/03/14 00:18:32;;;;;;;8.73;2.28;;;;;;;15.33;42.30;100670.00;5072354;28;20029;-82
2021/03/14 00:20:59;;;;;;;6.75;1.90;;;;;;;15.15;42.69;100672.22;5072449;28;20028;-82
2021/03/14 00:23:27;;;;;;;6.40;1.95;;;;;;;15.26;42.22;100678.84;5072430;28;20476;-80
2021/03/14 00:25:54;;;;;;;5.20;2.58;;;;;;;15.16;42.36;100688.38;5072371;28;20021;-81
2021/03/14 00:28:20;;;;;;;5.80;1.50;;;;;;;15.23;42.08;100690.56;5072336;28;20020;-82
2021/03/14 00:30:46;;;;;;;6.68;1.70;;;;;;;15.04;42.82;100691.16;5072351;28;20028;-81
2021/03/14 00:33:12;;;;;;;4.80;1.73;;;;;;;15.36;41.75;100691.38;5072341;28;20024;-80
2021/03/14 00:35:38;;;;;;;7.32;2.00;;;;;;;15.32;41.85;100699.50;5072311;28;20020;-81
2021/03/14 00:38:04;;;;;;;10.02;2.63;;;;;;;15.31;41.92;100711.66;5072298;28;20025;-79
2021/03/14 00:40:30;;;;;;;8.43;2.55;;;;;;;15.05;42.53;100706.53;5072168;28;20498;-79
2021/03/14 00:43:05;;;;;;;11.93;2.30;;;;;;;14.77;43.48;100720.13;5072206;28;20059;-79
2021/03/14 00:45:33;;;;;;;6.95;1.70;;;;;;;14.96;43.08;100717.63;5072132;28;20032;-79
2021/03/14 00:48:03;;;;;;;4.70;1.77;;;;;;;14.74;43.68;100725.53;5072097;28;20039;-80
2021/03/14 00:50:39;;;;;;;9.80;1.98;;;;;;;14.86;43.72;100723.56;5072190;28;20032;-79
2021/03/14 00:53:05;;;;;;;7.45;1.80;;;;;;;15.08;42.67;100724.28;5072118;28;20048;-79
2021/03/14 00:55:31;;;;;;;10.88;2.08;;;;;;;15.02;43.07;100726.44;5072127;28;20028;-79
2021/03/14 00:57:57;;;;;;;11.63;2.25;;;;;;;15.45;41.94;100723.13;5072090;28;20044;-81
2021/03/14 01:00:23;;;;;;;6.97;2.05;;;;;;;15.26;42.41;100737.50;5072091;28;20032;-79
2021/03/14 01:02:48;;;;;;;13.25;1.90;;;;;;;15.05;42.79;100736.00;5071908;28;20276;-79
2021/03/14 01:05:14;;;;;;;8.90;2.20;;;;;;;15.26;42.24;100744.91;5071993;28;20021;-79
2021/03/14 01:07:40;;;;;;;10.88;2.00;;;;;;;15.23;42.38;100753.88;5072027;28;20040;-81
2021/03/14 01:10:06;;;;;;;7.88;2.03;;;;;;;15.33;42.10;100753.41;5072003;28;20040;-82
2021/03/14 01:12:32;;;;;;;6.13;1.75;;;;;;;15.27;42.32;100763.88;5072242;28;20385;-78
2021/03/14 01:14:57;;;;;;;10.70;1.98;;;;;;;15.23;42.47;100760.19;5070695;28;20108;-79
2021/03/14 01:17:23;;;;;;;14.30;2.67;;;;;;;15.25;42.21;100771.63;5072141;28;20055;-79
2021/03/14 01:19:49;;;;;;;6.28;2.10;;;;;;;15.37;41.96;100768.09;5071841;28;20040;-79
2021/03/14 01:22:14;;;;;;;12.50;2.78;;;;;;;15.39;41.87;100771.31;5071722;28;20021;-81
2021/03/14 01:24:40;;;;;;;11.60;1.98;;;;;;;15.55;41.62;100785.19;5071779;28;20024;-79
2021/03/14 01:27:05;;;;;;;7.65;2.25;;;;;;;15.34;42.26;100787.25;5072573;28;20029;-80
2021/03/14 01:29:31;;;;;;;8.13;2.20;;;;;;;15.46;41.82;100787.25;5075373;28;20024;-82
2021/03/14 01:31:57;;;;;;;6.10;1.52;;;;;;;15.48;41.78;100807.78;5075262;28;20024;-79
2021/03/14 01:34:22;;;;;;;7.78;2.38;;;;;;;15.40;41.84;100800.44;5075659;28;20147;-79
2021/03/14 01:36:48;;;;;;;11.13;2.15;;;;;;;14.99;42.88;100809.69;5075147;28;20150;-79
2021/03/14 01:39:13;;;;;;;10.68;2.28;;;;;;;15.46;41.72;100812.84;5075167;28;20071;-82
2021/03/14 01:41:39;;;;;;;7.70;1.75;;;;;;;15.28;42.00;100814.22;5075164;28;20025;-79
2021/03/14 01:44:05;;;;;;;6.40;2.42;;;;;;;15.51;41.46;100817.31;5073842;28;20064;-79
2021/03/14 01:46:32;;;;;;;13.55;2.28;;;;;;;15.45;41.60;100819.50;5075064;28;20032;-79
2021/03/14 01:48:59;;;;;;;13.70;3.35;;;;;;;15.36;41.85;100827.06;5073779;28;20417;-82
2021/03/14 01:51:24;;;;;;;7.55;2.53;;;;;;;15.16;41.98;100827.94;5075021;28;20074;-79
2021/03/14 01:53:50;;;;;;;9.68;3.17;;;;;;;15.42;41.55;100839.47;5074883;28;20421;-78
2021/03/14 01:56:17;;;;;;;7.93;2.03;;;;;;;14.96;42.74;100837.88;5074833;28;20024;-82
2021/03/14 01:58:47;;;;;;;6.63;2.35;;;;;;;15.11;42.30;100839.16;5074733;28;20024;-80
2021/03/14 02:01:13;;;;;;;9.05;2.25;;;;;;;15.21;42.04;100849.75;5074604;28;20146;-83
2021/03/14 02:03:38;;;;;;;10.82;2.33;;;;;;;15.05;42.35;100857.88;5074769;28;20441;-81
2021/03/14 02:06:04;;;;;;;10.45;2.75;;;;;;;15.18;42.05;100866.94;5074568;28;20025;-81
2021/03/14 02:08:30;;;;;;;9.27;2.72;;;;;;;15.01;42.29;100880.88;5074633;28;20031;-80
2021/03/14 02:10:55;;;;;;;6.10;1.48;;;;;;;15.08;42.34;100868.19;5074662;28;20402;-79
2021/03/14 02:13:33;;;;;;;8.48;1.90;;;;;;;15.12;42.22;100879.34;5074784;28;20525;-80
2021/03/14 02:16:33;;;;;;;11.05;2.30;;;;;;;15.02;42.16;100894.31;5074618;28;20020;-82
2021/03/14 02:19:03;;;;;;;4.97;1.80;;;;;;;15.04;42.22;100893.97;5041753;28;20040;-79
2021/03/14 02:21:33;;;;;;;9.00;2.80;;;;;;;15.17;41.61;100901.13;5074380;28;20032;-79
2021/03/14 02:24:07;;;;;;;8.35;2.05;;;;;;;15.23;41.50;100908.00;5074323;28;20052;-79
2021/03/14 02:26:38;;;;;;;8.77;1.60;;;;;;;15.35;41.29;100907.25;5074200;28;20066;-79
2021/03/14 02:29:08;;;;;;;5.10;1.52;;;;;;;15.20;41.42;100903.22;5074260;28;20112;-79
2021/03/14 02:31:33;;;;;;;9.63;2.47;;;;;;;15.33;41.13;100902.06;5071562;28;20055;-81
2021/03/14 02:34:05;;;;;;;6.97;1.80;;;;;;;15.32;41.00;100911.47;5074058;28;20041;-80
2021/03/14 02:36:35;;;;;;;4.40;1.58;;;;;;;15.34;41.02;100908.38;5074018;28;20031;-80
2021/03/14 02:39:01;;;;;;;9.07;1.88;;;;;;;15.12;41.47;100924.16;5072864;28;20029;-78
2021/03/14 02:41:27;;;;;;;8.10;2.00;;;;;;;15.11;41.59;100933.53;5073938;28;20029;-82
2021/03/14 02:43:54;;;;;;;4.57;1.48;;;;;;;15.35;40.97;100927.31;5073977;28;20066;-80
2021/03/14 02:46:21;;;;;;;8.15;2.15;;;;;;;15.24;41.25;100934.41;5072609;28;20031;-79
2021/03/14 02:48:48;;;;;;;9.95;1.92;;;;;;;15.29;40.85;100942.44;5072599;28;20028;-80
2021/03/14 02:51:14;;;;;;;7.22;1.90;;;;;;;15.03;41.57;100958.41;5073749;28;20029;-83
2021/03/14 02:53:41;;;;;;;11.00;2.17;;;;;;;15.11;41.38;100966.56;5072521;28;20032;-80
2021/03/14 02:56:07;;;;;;;11.45;2.60;;;;;;;14.78;42.09;100968.47;5073823;28;20031;-81
2021/03/14 02:58:36;;;;;;;8.25;2.42;;;;;;;15.16;41.26;100960.06;5073774;28;20067;-79
2021/03/14 03:01:04;;;;;;;8.47;3.43;;;;;;;15.14;41.32;100970.63;5073406;28;20016;-79
2021/03/14 03:03:30;;;;;;;13.65;2.92;;;;;;;15.31;40.97;100973.19;5073592;28;20089;-79
2021/03/14 03:05:59;;;;;;;8.00;2.45;;;;;;;15.15;41.15;100975.78;5073317;28;20426;-79
2021/03/14 03:08:27;;;;;;;10.10;2.38;;;;;;;15.17;41.06;100984.50;5073201;28;20021;-79
2021/03/14 03:10:55;;;;;;;11.18;2.72;;;;;;;15.29;40.95;100992.00;5073364;28;20132;-81
2021/03/14 03:13:22;;;;;;;11.15;2.88;;;;;;;14.98;41.65;100995.19;5072160;28;20032;-79
2021/03/14 03:15:49;;;;;;;13.45;3.60;;;;;;;15.20;41.00;100992.09;5073422;28;20483;-78
2021/03/14 03:18:15;;;;;;;10.73;3.08;;;;;;;15.00;41.61;100998.41;5073285;28;20016;-78
2021/03/14 03:20:42;;;;;;;13.40;3.38;;;;;;;15.07;41.67;101006.13;5073288;28;20368;-79
2021/03/14 03:23:08;;;;;;;9.52;2.88;;;;;;;15.11;41.57;101007.84;5073180;28;20028;-80
2021/03/14 03:25:34;;;;;;;11.07;2.67;;;;;;;15.31;41.19;101014.47;5073019;28;20047;-78
2021/03/14 03:28:00;;;;;;;14.27;3.15;;;;;;;15.20;41.22;101005.03;5073346;28;20025;-79
2021/03/14 03:30:28;;;;;;;10.27;2.50;;;;;;;15.20;41.24;101008.59;5073031;28;20374;-79
2021/03/14 03:32:54;;;;;;;13.10;2.60;;;;;;;15.18;41.49;101019.13;5073026;28;20029;-81
2021/03/14 03:35:22;;;;;;;8.73;2.30;;;;;;;15.15;41.26;101022.56;5072944;28;20103;-82
2021/03/14 03:37:49;;;;;;;11.40;2.85;;;;;;;15.12;41.46;101028.75;5072918;28;20021;-79
2021/03/14 03:40:18;;;;;;;16.00;3.08;;;;;;;14.96;41.89;101022.22;5071849;28;20036;-79
2021/03/14 03:42:49;;;;;;;9.95;2.53;;;;;;;15.05;41.89;101022.19;5073125;28;20092;-79
2021/03/14 03:45:17;;;;;;;11.05;2.30;;;;;;;14.98;41.62;101023.50;5072840;28;20107;-80
2021/03/14 03:47:43;;;;;;;13.35;3.10;;;;;;;15.05;41.73;101019.44;5072359;28;20059;-80
2021/03/14 03:50:13;;;;;;;17.13;3.15;;;;;;;14.93;42.04;101020.94;5071747;28;20044;-78
2021/03/14 03:52:41;;;;;;;11.20;4.00;;;;;;;15.10;41.47;101020.00;5072614;28;20483;-79
2021/03/14 03:55:09;;;;;;;14.52;3.63;;;;;;;14.98;42.08;101026.25;5072747;28;20032;-82
2021/03/14 03:57:36;;;;;;;8.27;2.67;;;;;;;14.96;42.27;101035.97;5071475;28;20425;-78
2021/03/14 04:00:03;;;;;;;11.68;3.15;;;;;;;15.03;41.95;101050.00;5072574;28;20032;-80
2021/03/14 04:02:30;;;;;;;10.85;2.70;;;;;;;14.87;42.52;101052.56;5072417;28;20507;-79
2021/03/14 04:04:56;;;;;;;12.80;2.80;;;;;;;15.06;41.90;101041.09;5072446;28;20119;-80
2021/03/14 04:07:22;;;;;;;12.95;3.83;;;;;;;14.85;42.86;101043.03;5072549;28;20070;-80
2021/03/14 04:09:48;;;;;;;20.80;5.68;;;;;;;15.30;41.65;101051.41;5071294;28;20429;-79
2021/03/14 04:12:16;;;;;;;14.70;3.47;;;;;;;15.09;42.37;101059.69;5071241;28;20422;-81
2021/03/14 04:14:42;;;;;;;13.80;2.97;;;;;;;15.39;41.34;101070.63;5072519;28;20471;-78
2021/03/14 04:17:09;;;;;;;13.52;4.00;;;;;;;15.28;41.72;101064.72;5072623;28;20356;-81
2021/03/14 04:19:34;;;;;;;16.92;3.00;;;;;;;15.17;42.06;101072.56;5072301;28;20028;-79
2021/03/14 04:22:03;;;;;;;10.55;2.95;;;;;;;15.18;42.03;101065.09;5072480;28;20463;-81
2021/03/14 04:24:30;;;;;;;17.85;3.55;;;;;;;14.97;42.37;101073.38;5072416;28;20104;-79
2021/03/14 04:26:58;;;;;;;13.95;2.72;;;;;;;15.10;42.40;101068.75;5072373;28;20040;-81
2021/03/14 04:29:27;;;;;;;12.82;2.47;;;;;;;15.22;42.26;101071.56;5072367;28;20031;-80
2021/03/14 04:31:54;;;;;;;6.95;3.15;;;;;;;15.20;42.05;101076.63;5072432;28;20383;-81
2021/03/14 04:34:21;;;;;;;13.35;3.05;;;;;;;15.32;41.55;101062.09;5072315;28;20033;-80
2021/03/14 04:36:48;;;;;;;12.65;2.83;;;;;;;15.22;41.94;101072.38;5072241;28;20075;-78
2021/03/14 04:39:15;;;;;;;17.42;3.28;;;;;;;15.15;42.13;101082.31;5072301;28;20020;-81
2021/03/14 04:41:42;;;;;;;10.85;2.85;;;;;;;15.26;41.73;101078.00;5355793;22;20144;-78
2021/03/14 04:44:09;;;;;;;18.05;3.72;;;;;;;15.31;41.60;101080.56;5051817;28;20086;-75
2021/03/14 04:46:36;;;;;;;11.38;2.40;;;;;;;15.28;41.75;101092.25;5052193;28;20036;-81
2021/03/14 04:49:02;;;;;;;9.13;1.95;;;;;;;15.22;41.89;101101.84;5050397;28;20087;-78
2021/03/14 04:51:29;;;;;;;13.65;3.40;;;;;;;15.41;41.42;101104.13;5051524;28;20021;-76
2021/03/14 04:53:57;;;;;;;15.52;2.97;;;;;;;15.16;41.79;101117.75;5052186;28;20029;-81
2021/03/14 04:56:24;;;;;;;12.48;3.10;;;;;;;15.24;41.70;101119.63;5052367;28;20474;-75
2021/03/14 04:58:51;;;;;;;14.90;3.22;;;;;;;15.10;41.84;101124.59;5052257;28;20352;-75
2021/03/14 05:01:19;;;;;;;11.77;3.00;;;;;;;15.15;41.49;101126.34;5050927;28;20032;-75
2021/03/14 05:03:48;;;;;;;14.50;2.92;;;;;;;15.17;41.78;101124.06;5054188;28;20455;-75
2021/03/14 05:06:19;;;;;;;11.55;3.58;;;;;;;15.21;41.49;101125.00;5054064;28;20033;-75
2021/03/14 05:08:46;;;;;;;11.18;3.17;;;;;;;14.97;42.08;101126.47;5054254;28;20032;-77
2021/03/14 05:11:16;;;;;;;19.52;3.75;;;;;;;15.07;41.88;101118.97;5054104;28;20483;-81
2021/03/14 05:13:42;;;;;;;12.55;3.50;;;;;;;15.18;41.50;101120.16;5054360;28;20060;-75
2021/03/14 05:16:08;;;;;;;10.15;3.05;;;;;;;15.23;41.45;101119.97;5054935;28;20516;-81
2021/03/14 05:18:34;;;;;;;10.07;2.40;;;;;;;15.36;41.02;101123.63;5055704;28;20025;-81
2021/03/14 05:21:01;;;;;;;9.85;2.53;;;;;;;15.18;41.49;101131.97;5055794;28;20081;-75
2021/03/14 05:23:28;;;;;;;10.98;2.50;;;;;;;15.28;41.25;101141.81;5055802;28;20029;-80
2021/03/14 05:25:55;;;;;;;16.63;3.10;;;;;;;15.06;41.60;101142.13;5055705;28;20171;-75
2021/03/14 05:28:21;;;;;;;10.07;2.60;;;;;;;15.04;41.58;101145.22;5055757;28;20068;-77
2021/03/14 05:30:46;;;;;;;19.42;4.40;;;;;;;15.21;41.17;101139.59;5055505;28;20556;-75
2021/03/14 05:33:12;;;;;;;11.23;2.33;;;;;;;15.08;41.30;101146.13;5055435;28;20498;-80
2021/03/14 05:35:38;;;;;;;8.30;2.13;;;;;;;15.05;41.77;101144.06;5055451;28;20028;-81
2021/03/14 05:38:04;;;;;;;10.90;2.60;;;;;;;15.09;41.33;101157.94;5055422;28;20067;-80
2021/03/14 05:40:30;;;;;;;10.52;2.28;;;;;;;15.18;41.14;101158.69;5055150;28;20025;-75
2021/03/14 05:42:57;;;;;;;12.85;2.53;;;;;;;15.16;41.34;101156.28;5055385;28;20029;-75
2021/03/14 05:45:24;;;;;;;8.25;2.30;;;;;;;15.09;41.33;101157.94;5055225;28;20033;-75
2021/03/14 05:47:50;;;;;;;16.92;2.65;;;;;;;15.19;41.10;101160.34;5055278;28;20036;-80
2021/03/14 05:50:20;;;;;;;10.55;1.85;;;;;;;15.21;40.85;101149.78;5054829;28;20394;-75
2021/03/14 05:52:47;;;;;;;;;;;;;;;14.95;41.48;101160.94;5053917;28;20165;-81
2021/03/14 05:55:21;;;;;;;10.40;2.08;;;;;;;14.93;41.53;101165.97;5052138;28;19913;-75
2021/03/14 05:57:49;;;;;;;10.05;1.90;;;;;;;15.11;41.36;101175.72;5052431;28;20021;-78
2021/03/14 06:00:24;;;;;;;5.32;1.70;;;;;;;14.96;41.60;101168.06;5053226;28;20100;-81
2021/03/14 06:02:52;;;;;;;9.88;2.58;;;;;;;14.98;41.51;101174.06;5053332;28;20021;-75
2021/03/14 06:05:19;;;;;;;9.63;1.70;;;;;;;15.08;41.44;101184.66;5052968;28;20026;-75
2021/03/14 06:07:44;;;;;;;12.63;2.80;;;;;;;15.15;41.47;101181.41;5054832;28;20502;-80
2021/03/14 06:10:10;;;;;;;12.75;2.47;;;;;;;14.96;42.15;101187.31;5054861;28;20025;-77
2021/03/14 06:12:36;;;;;;;10.63;2.78;;;;;;;15.14;41.23;101188.03;5054415;28;20538;-80
2021/03/14 06:15:03;;;;;;;9.23;2.25;;;;;;;15.15;41.62;101193.22;5054665;28;20536;-74
2021/03/14 06:17:30;;;;;;;13.88;1.90;;;;;;;15.09;41.88;101213.00;5053481;28;20447;-80
2021/03/14 06:19:56;;;;;;;7.75;2.33;;;;;;;15.13;41.71;101208.47;5054675;28;20032;-73
2021/03/14 06:22:24;;;;;;;11.40;2.42;;;;;;;15.08;41.91;101219.66;5053392;28;20025;-74
2021/03/14 06:24:52;;;;;;;12.02;2.95;;;;;;;15.27;41.44;101211.78;5054349;28;20032;-80
2021/03/14 06:27:51;;;;;;;13.20;2.67;;;;;;;15.31;41.58;101209.16;5054493;28;20048;-75
2021/03/14 06:30:18;;;;;;;10.38;2.58;;;;;;;15.29;41.66;101208.69;5054337;28;20025;-78
2021/03/14 06:33:11;;;;;;;14.98;3.65;;;;;;;15.16;41.97;101211.34;5054259;28;20025;-80
2021/03/14 06:35:42;;;;;;;11.00;2.03;;;;;;;15.38;41.52;101209.44;5054357;28;20037;-74
2021/03/14 06:38:26;;;;;;;10.20;2.67;;;;;;;15.29;41.72;101215.00;5054286;28;20025;-80
2021/03/14 06:41:13;;;;;;;9.20;2.45;;;;;;;15.20;41.74;101217.81;5054074;28;20111;-75
2021/03/14 06:43:50;;;;;;;16.17;3.92;;;;;;;15.29;42.01;101214.19;5053878;28;20033;-82
2021/03/14 06:46:30;;;;;;;11.38;2.53;;;;;;;15.24;42.06;101210.47;5053992;28;20032;-80
2021/03/14 06:49:10;;;;;;;13.98;3.50;;;;;;;15.08;42.40;101212.19;5054066;28;20418;-75
2021/03/14 06:51:39;;;;;;;6.13;1.75;;;;;;;15.10;42.30;101209.09;5052793;28;20536;-75
2021/03/14 06:54:17;;;;;;;11.57;2.20;;;;;;;15.06;42.60;101210.91;5054078;28;20031;-75
2021/03/14 06:57:17;;;;;;;13.35;2.42;;;;;;;14.71;43.25;101202.81;5053979;28;20090;-81
2021/03/14 07:00:00;;;;;;;5.82;1.95;;;;;;;14.81;43.10;101205.22;5052451;28;20474;-81
2021/03/14 07:02:27;;;;;;;8.05;2.00;;;;;;;15.17;42.27;101214.91;5053803;28;20029;-82
2021/03/14 07:05:04;;;;;;;20.65;5.32;;;;;;;15.26;42.07;101215.66;5053741;28;20036;-80
2021/03/14 07:07:33;;;;;;;11.63;3.92;;;;;;;15.06;42.48;101219.19;5053731;28;20075;-81
2021/03/14 07:10:08;;;;;;;13.85;3.20;;;;;;;15.24;42.22;101210.47;5053664;28;20104;-75
2021/03/14 07:12:36;;;;;;;13.95;2.80;;;;;;;15.26;41.88;101210.13;5053509;28;20031;-75
2021/03/14 07:15:13;;;;;;;14.50;2.70;;;;;;;14.82;42.92;101215.06;5053533;28;20037;-81
2021/03/14 07:17:39;;;;;;;10.48;2.38;;;;;;;15.20;42.17;101214.25;5053473;28;20174;-82
2021/03/14 07:20:09;;;;;;;13.55;3.63;;;;;;;15.11;42.46;101218.97;5053612;28;20067;-78
2021/03/14 07:22:35;;;;;;;7.00;2.75;;;;;;;15.09;42.52;101213.81;5053413;28;20033;-78
2021/03/14 07:25:01;;;;;;;9.93;2.78;;;;;;;14.84;43.23;101229.31;5052582;28;20035;-80
2021/03/14 07:27:30;;;;;;;10.15;2.78;;;;;;;15.11;42.33;101227.22;5053324;28;20117;-75
2021/03/14 07:29:57;;;;;;;;;;;;;;;14.81;43.08;101224.47;5053744;28;20519;-83
2021/03/14 07:32:23;;;;;;;10.52;2.58;;;;;;;15.25;42.09;101212.09;5041197;28;20362;-78
2021/03/14 07:34:49;;;;;;;12.40;2.75;;;;;;;15.37;42.07;101232.59;5041653;28;20411;-81
2021/03/14 07:37:16;;;;;;;10.43;3.22;;;;;;;15.06;42.56;101239.25;5052760;28;20031;-81
2021/03/14 07:39:46;;;;;;;11.38;2.35;;;;;;;15.45;41.96;101240.81;5052325;28;20021;-84
2021/03/14 07:42:12;;;;;;;10.35;2.28;;;;;;;15.31;42.34;101247.69;5052861;28;20075;-76
2021/03/14 07:44:38;;;;;;;12.77;2.65;;;;;;;15.49;41.86;101269.31;5052775;28;20032;-87
2021/03/14 07:47:05;;;;;;;10.25;2.65;;;;;;;15.69;41.55;101269.69;5052688;28;20033;-82
2021/03/14 07:49:31;;;;;;;13.00;3.13;;;;;;;15.85;41.05;101281.72;5050256;28;20028;-81
2021/03/14 07:52:01;;;;;;;11.02;2.72;;;;;;;15.86;41.07;101285.28;5041043;28;20044;-78
2021/03/14 07:54:42;;;;;;;13.52;2.38;;;;;;;15.92;41.05;101281.19;5040856;28;20021;-80
2021/03/14 07:57:10;;;;;;;11.25;2.63;;;;;;;15.58;41.72;101277.50;5041088;28;20021;-78
2021/03/14 07:59:36;;;;;;;13.18;2.58;;;;;;;15.55;41.75;101280.91;5051666;28;20021;-79
2021/03/14 08:02:17;;;;;;;12.43;3.22;;;;;;;15.78;41.62;101292.47;5044851;28;20040;-82
2021/03/14 08:04:46;;;;;;;11.00;2.60;;;;;;;15.89;41.32;101281.88;5045656;28;20056;-83
2021/03/14 08:07:12;;;;;;;12.77;3.38;;;;;;;15.76;41.29;101280.97;5048189;28;20479;-75
2021/03/14 08:09:46;;;;;;;18.17;3.80;;;;;;;15.66;41.83;101273.13;5046721;28;20060;-82
2021/03/14 08:12:24;;;;;;;13.45;2.60;;;;;;;15.95;41.00;101275.81;5039756;28;20075;-79
2021/03/14 08:14:58;;;;;;;11.90;3.55;;;;;;;15.82;41.29;101285.16;5044844;28;20027;-78
2021/03/14 08:17:26;;;;;;;13.80;3.25;;;;;;;16.22;40.61;101277.22;5042433;28;20025;-78
2021/03/14 08:19:53;;;;;;;10.20;2.75;;;;;;;16.21;40.62;101281.13;5042193;28;20044;-81
2021/03/14 08:22:37;;;;;;;9.18;2.75;;;;;;;15.83;41.33;101278.50;5045375;28;20056;-79
2021/03/14 08:25:21;;;;;;;9.88;2.40;;;;;;;15.76;41.37;101279.03;5047148;28;20021;-78
2021/03/14 08:27:52;;;;;;;13.13;4.35;;;;;;;16.11;40.73;101283.47;5045880;28;20025;-77
2021/03/14 08:30:42;;;;;;;14.55;3.75;;;;;;;16.06;40.99;101282.53;5045440;28;20033;-79
2021/03/14 08:33:16;;;;;;;12.82;4.50;;;;;;;16.22;40.36;101284.69;5047017;28;20036;-80
2021/03/14 08:35:49;;;;;;;16.30;3.47;;;;;;;16.25;40.31;101281.25;5045425;28;20024;-78
2021/03/14 08:38:35;;;;;;;13.02;2.90;;;;;;;16.19;40.38;101274.34;5055037;28;20106;-77
2021/03/14 08:41:19;;;;;;;13.52;3.65;;;;;;;16.22;40.36;101281.91;5046398;28;20033;-79
2021/03/14 08:43:47;;;;;;;15.57;3.53;;;;;;;16.00;40.80;101270.09;5052078;28;20506;-82
2021/03/14 08:46:13;;;;;;;17.52;3.38;;;;;;;16.21;40.55;101272.03;5055363;28;20032;-77
2021/03/14 08:48:38;;;;;;;14.98;3.00;;;;;;;16.28;40.21;101272.28;5055766;28;20371;-79
2021/03/14 08:51:06;;;;;;;15.88;3.42;;;;;;;16.21;40.35;101272.84;5055768;28;20032;-79
2021/03/14 08:53:36;;;;;;;12.40;3.70;;;;;;;15.98;40.87;101280.66;5055808;28;20070;-76
2021/03/14 08:56:01;;;;;;;;;;;;;;;16.03;40.72;101282.41;5056367;28;20048;-76
2021/03/14 08:58:27;;;;;;;11.73;2.80;;;;;;;15.91;41.02;101276.81;5055953;28;19913;-77
2021/03/14 09:01:05;;;;;;;15.32;3.22;;;;;;;15.81;41.28;101286.31;5055768;28;20025;-77
2021/03/14 09:03:30;;;;;;;14.57;3.05;;;;;;;16.34;40.36;101296.56;5055552;28;20029;-78
2021/03/14 09:06:02;;;;;;;13.73;4.63;;;;;;;16.04;40.60;101290.34;5054344;28;20037;-79
2021/03/14 09:08:28;;;;;;;20.92;3.67;;;;;;;16.60;39.62;101293.56;5055749;28;20163;-76
2021/03/14 09:10:53;;;;;;;7.82;3.00;;;;;;;16.55;39.68;101304.81;5055486;28;20473;-79
2021/03/14 09:13:29;;;;;;;8.60;2.75;;;;;;;16.07;40.35;101300.69;5055682;28;20029;-78
2021/03/14 09:15:55;;;;;;;10.07;2.63;;;;;;;16.45;39.94;101309.94;5055497;28;20029;-74
2021/03/14 09:18:28;;;;;;;15.35;3.17;;;;;;;16.41;39.94;101306.25;5054230;28;20036;-73
2021/03/14 09:21:01;;;;;;;12.43;2.80;;;;;;;16.72;39.57;101306.63;5053868;28;20036;-74
2021/03/14 09:23:26;;;;;;;20.73;4.70;;;;;;;16.29;40.21;101312.50;5055751;28;20033;-76
2021/03/14 09:25:54;;;;;;;17.65;4.07;;;;;;;16.61;39.77;101316.44;5053843;28;20478;-78
2021/03/14 09:28:19;;;;;;;10.40;2.17;;;;;;;16.88;39.13;101318.63;5053486;28;20036;-86
2021/03/14 09:30:45;;;;;;;9.05;2.78;;;;;;;16.69;39.14;101332.13;5053781;28;20028;-85
2021/03/14 09:33:12;;;;;;;12.88;3.90;;;;;;;17.15;38.76;101343.97;5046199;28;20040;-76
2021/03/14 09:35:42;;;;;;;15.30;3.05;;;;;;;17.18;38.37;101349.63;5042757;28;20087;-86
2021/03/14 09:38:10;;;;;;;12.73;2.25;;;;;;;17.25;38.58;101348.25;5044637;28;20021;-81
2021/03/14 09:40:37;;;;;;;16.95;3.38;;;;;;;17.50;38.04;101354.59;5053260;28;20029;-78
2021/03/14 09:43:04;;;;;;;13.73;2.60;;;;;;;17.38;38.33;101352.63;5053332;28;20094;-78
2021/03/14 09:45:31;;;;;;;14.98;3.58;;;;;;;17.48;37.97;101341.13;5049606;28;20040;-85
2021/03/14 09:48:04;;;;;;;13.85;3.78;;;;;;;17.35;38.08;101337.56;5041753;28;20083;-83
2021/03/14 09:50:35;;;;;;;18.33;2.80;;;;;;;17.35;38.01;101348.59;5033755;28;20474;-83
2021/03/14 09:53:03;;;;;;;10.73;2.55;;;;;;;17.69;37.32;101347.34;5035095;28;20029;-78
2021/03/14 09:55:32;;;;;;;13.13;2.92;;;;;;;17.51;37.54;101332.13;5035223;28;20033;-81
2021/03/14 09:58:01;;;;;;;15.43;3.08;;;;;;;17.43;37.61;101342.16;5035012;28;20021;-85
2021/03/14 10:00:32;;;;;;;7.05;2.45;;;;;;;17.02;38.26;101345.91;5033660;28;20025;-78
2021/03/14 10:03:00;;;;;;;12.20;2.55;;;;;;;17.16;37.90;101349.16;5039169;28;20025;-76
2021/03/14 10:05:25;;;;;;;17.92;4.30;;;;;;;17.29;37.84;101343.63;5052073;28;20085;-84
2021/03/14 10:07:52;;;;;;;16.63;2.75;;;;;;;17.59;37.14;101331.22;5054325;28;20111;-77
2021/03/14 10:10:19;;;;;;;8.68;1.95;;;;;;;17.05;38.20;101338.88;5054645;28;20029;-85
2021/03/14 10:12:45;;;;;;;12.50;2.33;;;;;;;17.17;38.23;101348.00;5049126;28;20039;-76
2021/03/14 10:15:15;;;;;;;7.90;2.00;;;;;;;17.48;37.63;101324.56;5043859;28;20025;-76
2021/03/14 10:17:41;;;;;;;9.23;2.13;;;;;;;17.19;38.26;101329.13;5040136;28;20028;-80
2021/03/14 10:20:07;;;;;;;12.50;2.20;;;;;;;17.39;38.25;101323.88;5032781;28;20025;-76
2021/03/14 10:22:34;;;;;;;12.30;3.00;;;;;;;17.36;38.26;101322.59;5031238;28;20132;-76
2021/03/14 10:24:59;;;;;;;9.85;2.42;;;;;;;17.69;37.70;101318.91;5032980;28;20434;-78
2021/03/14 10:27:27;;;;;;;9.98;2.05;;;;;;;17.77;37.80;101322.72;5033018;28;20029;-77
2021/03/14 10:30:01;;;;;;;13.23;2.70;;;;;;;17.44;38.17;101304.28;5033089;28;20061;-76
2021/03/14 10:32:29;;;;;;;10.13;2.78;;;;;;;17.35;38.32;101301.66;5042362;28;20021;-83
2021/03/14 10:34:58;;;;;;;6.68;2.20;;;;;;;17.50;38.21;101302.91;5043108;28;20643;-83
2021/03/14 10:37:35;;;;;;;9.18;2.08;;;;;;;17.26;38.49;101306.47;5042482;28;20407;-81
2021/03/14 10:40:12;;;;;;;9.77;3.40;;;;;;;17.73;38.11;101304.06;5043555;28;20029;-83
2021/03/14 10:42:44;;;;;;;8.52;3.40;;;;;;;17.49;38.80;101309.59;5034240;28;20491;-84
2021/03/14 10:45:12;;;;;;;10.63;2.17;;;;;;;17.96;37.78;101293.31;5040558;28;20039;-82
2021/03/14 10:47:38;;;;;;;13.52;2.80;;;;;;;17.74;38.42;101272.50;5039979;28;20033;-81
2021/03/14 10:50:07;;;;;;;7.32;2.38;;;;;;;17.66;38.91;101290.00;5029837;28;20057;-77
2021/03/14 10:52:33;;;;;;;11.35;5.20;;;;;;;17.89;38.58;101268.22;5035360;28;20034;-80
2021/03/14 10:54:58;;;;;;;16.23;6.00;;;;;;;18.22;38.09;101272.72;5034758;28;20036;-83
2021/03/14 10:57:24;;;;;;;11.63;4.13;;;;;;;18.23;38.30;101269.59;5034739;28;20056;-79
2021/03/14 10:59:49;;;;;;;13.80;4.65;;;;;;;18.24;38.59;101262.91;5033802;28;20364;-78
2021/03/14 11:02:33;;;;;;;17.17;4.18;;;;;;;18.32;38.61;101268.66;5036322;28;20052;-79
2021/03/14 11:04:59;;;;;;;11.32;3.50;;;;;;;17.57;40.53;101260.88;5041401;28;20041;-79
2021/03/14 11:07:27;;;;;;;14.63;4.10;;;;;;;17.79;39.93;101271.47;5038713;28;20087;-78
2021/03/14 11:10:10;;;;;;;14.68;4.88;;;;;;;18.07;39.81;101266.00;5042096;28;20037;-80
2021/03/14 11:12:44;;;;;;;9.57;3.65;;;;;;;17.57;41.11;101252.59;5042743;28;20059;-79
2021/03/14 11:15:36;;;;;;;9.77;2.80;;;;;;;17.64;40.87;101263.88;5043845;28;20371;-79
2021/03/14 11:18:04;;;;;;;9.98;3.15;;;;;;;17.98;40.17;101266.09;5043556;28;20037;-76
2021/03/14 11:20:37;;;;;;;16.50;3.60;;;;;;;17.80;40.81;101267.56;5083940;28;20366;-78
2021/03/14 11:23:03;;;;;;;11.85;3.22;;;;;;;18.00;40.91;101244.47;5067149;28;20029;-79
2021/03/14 11:25:29;;;;;;;10.18;3.28;;;;;;;17.61;41.59;101257.09;5067141;28;20024;-77
2021/03/14 11:27:55;;;;;;;10.43;2.67;;;;;;;17.94;41.13;101251.38;5065911;28;20100;-78
2021/03/14 11:30:24;;;;;;;10.57;3.28;;;;;;;17.55;42.26;101255.72;5067862;28;20107;-78